createdAt,value
2022-08-27T00:02:24.000Z,264.47
2022-08-27T00:07:24.000Z,292.99
2022-08-27T00:12:24.000Z,275.32
2022-08-27T00:17:25.000Z,276.41
2022-08-27T00:22:24.000Z,254.39
2022-08-27T00:27:25.000Z,258.45
2022-08-27T00:32:24.000Z,227.72
2022-08-27T00:37:25.000Z,204.03
2022-08-27T00:42:25.000Z,179.58
2022-08-27T00:47:24.000Z,151.99
2022-08-27T00:52:24.000Z,127.53
2022-08-27T00:57:24.000Z,111.93
2022-08-27T01:02:25.000Z,109.23
2022-08-27T01:07:24.000Z,92.33
2022-08-27T01:12:24.000Z,89.04
2022-08-27T01:17:24.000Z,88.13
2022-08-27T01:22:25.000Z,75.04
2022-08-27T01:27:25.000Z,62.1
2022-08-27T01:32:25.000Z,50.48
2022-08-27T01:37:24.000Z,49.38
2022-08-27T01:42:24.000Z,48.4
2022-08-27T01:47:24.000Z,45.69
2022-08-27T01:52:25.000Z,45.24
2022-08-27T01:57:25.000Z,47.42
2022-08-27T02:07:24.000Z,47.67
2022-08-27T02:12:25.000Z,46.54
2022-08-27T02:17:24.000Z,47.79
2022-08-27T02:22:25.000Z,48.09
2022-08-27T02:27:25.000Z,48.21
2022-08-27T02:32:24.000Z,45.02
2022-08-27T02:37:24.000Z,42.95
2022-08-27T02:42:24.000Z,41.57
2022-08-27T02:47:24.000Z,43.26
2022-08-27T02:52:25.000Z,42.2
2022-08-27T02:57:24.000Z,40.92
2022-08-27T03:02:25.000Z,40.02
2022-08-27T03:07:24.000Z,38.93
2022-08-27T03:12:24.000Z,38.92
2022-08-27T03:17:24.000Z,39.26
2022-08-27T03:22:24.000Z,38.57
2022-08-27T03:27:24.000Z,38.01
2022-08-27T03:32:24.000Z,38.6
2022-08-27T03:42:24.000Z,39.78
2022-08-27T03:47:24.000Z,39.93
2022-08-27T03:52:24.000Z,40.71
2022-08-27T03:57:24.000Z,40.4
2022-08-27T04:02:25.000Z,39.9
2022-08-27T04:07:24.000Z,39.32
2022-08-27T04:12:25.000Z,39.18
2022-08-27T04:22:24.000Z,39.29
2022-08-27T04:27:24.000Z,39.23
2022-08-27T04:32:24.000Z,39.27
2022-08-27T04:37:24.000Z,39.95
2022-08-27T04:42:24.000Z,41.57
2022-08-27T04:47:24.000Z,42.6
2022-08-27T04:52:24.000Z,46.39
2022-08-27T04:57:24.000Z,47.47
2022-08-27T05:02:24.000Z,53.44
2022-08-27T05:07:24.000Z,59.11
2022-08-27T05:12:24.000Z,64.03
2022-08-27T05:17:24.000Z,65.94
2022-08-27T05:22:24.000Z,72.86
2022-08-27T05:27:24.000Z,80.63
2022-08-27T05:32:24.000Z,83.36
2022-08-27T05:37:24.000Z,83.36
2022-08-27T05:42:25.000Z,86.33
2022-08-27T05:47:24.000Z,89.13
2022-08-27T05:57:24.000Z,90.59
2022-08-27T06:02:25.000Z,88.91
2022-08-27T06:07:25.000Z,89.61
2022-08-27T06:12:25.000Z,89.24
2022-08-27T06:17:25.000Z,89.45
2022-08-27T06:22:24.000Z,87.66
2022-08-27T06:27:25.000Z,88.86
2022-08-27T06:32:25.000Z,86.47
2022-08-27T06:37:24.000Z,86.58
2022-08-27T06:42:24.000Z,83.68
2022-08-27T06:47:25.000Z,81.84
2022-08-27T06:52:25.000Z,81.51
2022-08-27T06:57:25.000Z,81.93
2022-08-27T07:07:24.000Z,78.62
2022-08-27T07:12:25.000Z,77.43
2022-08-27T07:22:25.000Z,62.02
2022-08-27T07:27:24.000Z,57.44
2022-08-27T07:32:25.000Z,56.13
2022-08-27T07:37:24.000Z,51.07
2022-08-27T07:42:24.000Z,51.15
2022-08-27T07:47:24.000Z,52.02
2022-08-27T07:52:24.000Z,50.68
2022-08-27T07:57:24.000Z,47.77
2022-08-27T08:02:24.000Z,46.33
2022-08-27T08:07:25.000Z,47.68
2022-08-27T08:12:24.000Z,46.12
2022-08-27T08:17:25.000Z,43.08
2022-08-27T08:22:24.000Z,40.7
2022-08-27T08:27:25.000Z,38.01
2022-08-27T08:32:24.000Z,34.49
2022-08-27T08:37:24.000Z,31.68
2022-08-27T08:42:24.000Z,26.33
2022-08-27T08:47:25.000Z,24.57
2022-08-27T08:52:24.000Z,21.45
2022-08-27T08:57:24.000Z,20.53
2022-08-27T09:02:25.000Z,20.42
2022-08-27T09:07:24.000Z,18.29
2022-08-27T09:12:24.000Z,17.6
2022-08-27T09:17:25.000Z,17.06
2022-08-27T09:22:25.000Z,15.67
2022-08-27T09:27:24.000Z,15.4
2022-08-27T09:32:24.000Z,11.77
2022-08-27T09:37:25.000Z,11.93
2022-08-27T09:42:24.000Z,11.58
2022-08-27T09:47:24.000Z,10.94
2022-08-27T09:52:24.000Z,12.68
2022-08-27T09:57:24.000Z,13.89
2022-08-27T10:02:24.000Z,13.83
2022-08-27T10:07:24.000Z,13.58
2022-08-27T10:12:25.000Z,13.82
2022-08-27T10:17:24.000Z,14.14
2022-08-27T10:22:24.000Z,13.76
2022-08-27T10:27:25.000Z,13.51
2022-08-27T10:32:24.000Z,14.88
2022-08-27T10:37:24.000Z,14.92
2022-08-27T10:42:25.000Z,15.59
2022-08-27T10:47:24.000Z,15.21
2022-08-27T10:52:24.000Z,14.94
2022-08-27T10:57:24.000Z,14.6
2022-08-27T11:02:24.000Z,14.52
2022-08-27T11:07:24.000Z,14.4
2022-08-27T11:12:25.000Z,14.66
2022-08-27T11:17:24.000Z,14.93
2022-08-27T11:22:24.000Z,15.08
2022-08-27T11:27:24.000Z,15.31
2022-08-27T11:32:24.000Z,13.91
2022-08-27T11:37:24.000Z,12.76
2022-08-27T11:42:24.000Z,13.49
2022-08-27T11:47:24.000Z,13.72
2022-08-27T11:52:24.000Z,14.05
2022-08-27T11:57:24.000Z,14.11
2022-08-27T12:02:24.000Z,14.64
2022-08-27T12:07:24.000Z,15.01
2022-08-27T12:12:24.000Z,14.86
2022-08-27T12:17:24.000Z,15.02
2022-08-27T12:22:24.000Z,14.86
2022-08-27T12:27:24.000Z,15.31
2022-08-27T12:32:24.000Z,15.05
2022-08-27T12:37:24.000Z,15.04
2022-08-27T12:42:24.000Z,15.88
2022-08-27T12:47:25.000Z,16.45
2022-08-27T12:52:24.000Z,16.51
2022-08-27T12:57:24.000Z,17.6
2022-08-27T13:02:24.000Z,18.04
2022-08-27T13:07:24.000Z,18.79
2022-08-27T13:12:24.000Z,18.94
2022-08-27T13:17:24.000Z,18.17
2022-08-27T13:22:24.000Z,18.75
2022-08-27T13:27:25.000Z,17.92
2022-08-27T13:32:24.000Z,18.39
2022-08-27T13:37:24.000Z,17.79
2022-08-27T13:42:24.000Z,18.14
2022-08-27T13:47:36.000Z,18.29
2022-08-27T13:52:25.000Z,18.75
2022-08-27T13:57:24.000Z,19.56
2022-08-27T14:02:24.000Z,19.65
2022-08-27T14:07:24.000Z,19.87
2022-08-27T14:12:25.000Z,19.99
2022-08-27T14:17:24.000Z,20.33
2022-08-27T14:22:24.000Z,20.91
2022-08-27T14:27:25.000Z,20.82
2022-08-27T14:32:24.000Z,21.04
2022-08-27T14:37:24.000Z,22.36
2022-08-27T14:42:25.000Z,21.49
2022-08-27T14:47:25.000Z,21.58
2022-08-27T14:52:24.000Z,21.76
2022-08-27T14:57:24.000Z,22.07
2022-08-27T15:02:24.000Z,22.58
2022-08-27T15:07:24.000Z,23.33
2022-08-27T15:12:24.000Z,23.9
2022-08-27T15:17:24.000Z,24.75
2022-08-27T15:22:24.000Z,25.33
2022-08-27T15:27:25.000Z,25.26
2022-08-27T15:32:24.000Z,26
2022-08-27T15:37:25.000Z,26.69
2022-08-27T15:42:24.000Z,26.85
2022-08-27T15:47:24.000Z,27.63
2022-08-27T15:52:24.000Z,27.78
2022-08-27T15:57:24.000Z,28.3
2022-08-27T16:02:24.000Z,29.1
2022-08-27T16:12:25.000Z,30.33
2022-08-27T16:17:24.000Z,30
2022-08-27T16:22:24.000Z,30.44
2022-08-27T16:27:25.000Z,31.56
2022-08-27T16:32:24.000Z,33.95
2022-08-27T16:37:25.000Z,33.31
2022-08-27T16:42:25.000Z,33.54
2022-08-27T16:47:25.000Z,35.88
2022-08-27T16:52:24.000Z,34.4
2022-08-27T16:57:25.000Z,34.48
2022-08-27T17:02:24.000Z,35.8
2022-08-27T17:07:25.000Z,37.51
2022-08-27T17:12:24.000Z,36.28
2022-08-27T17:17:25.000Z,36.44
2022-08-27T17:22:24.000Z,37.05
2022-08-27T17:27:25.000Z,38.29
2022-08-27T17:32:25.000Z,41.14
2022-08-27T17:37:24.000Z,39.66
2022-08-27T17:42:25.000Z,39.09
2022-08-27T17:47:24.000Z,39.5
2022-08-27T17:52:24.000Z,42.62
2022-08-27T17:57:24.000Z,45.86
2022-08-27T18:02:24.000Z,44.92
2022-08-27T18:07:25.000Z,48.53
2022-08-27T18:12:24.000Z,49.2
2022-08-27T18:17:25.000Z,47.83
2022-08-27T18:22:25.000Z,45.76
2022-08-27T18:27:25.000Z,47.68
2022-08-27T18:32:24.000Z,48.22
2022-08-27T18:37:24.000Z,49.36
2022-08-27T18:42:24.000Z,49.35
2022-08-27T18:47:25.000Z,53.49
2022-08-27T18:52:24.000Z,53
2022-08-27T18:57:24.000Z,54.57
2022-08-27T19:02:24.000Z,53.83
2022-08-27T19:07:25.000Z,53.17
2022-08-27T19:12:24.000Z,52.37
2022-08-27T19:17:25.000Z,51.31
2022-08-27T19:22:24.000Z,52.05
2022-08-27T19:32:24.000Z,57.23
2022-08-27T19:37:24.000Z,57.83
2022-08-27T19:42:25.000Z,56.99
2022-08-27T19:47:24.000Z,56.07
2022-08-27T19:52:25.000Z,58.58
2022-08-27T19:57:24.000Z,60.26
2022-08-27T20:02:24.000Z,61.61
2022-08-27T20:07:24.000Z,60.16
2022-08-27T20:12:25.000Z,59.72
2022-08-27T20:17:24.000Z,60.33
2022-08-27T20:22:24.000Z,59.65
2022-08-27T20:27:25.000Z,59.45
2022-08-27T20:32:24.000Z,60.33
2022-08-27T20:37:24.000Z,60.08
2022-08-27T20:42:24.000Z,61.42
2022-08-27T20:47:24.000Z,64.48
2022-08-27T20:52:25.000Z,62.6
2022-08-27T20:57:24.000Z,62.03
2022-08-27T21:02:24.000Z,64.04
2022-08-27T21:07:24.000Z,65.49
2022-08-27T21:12:25.000Z,67.68
2022-08-27T21:17:24.000Z,66.66
2022-08-27T21:22:25.000Z,66.46
2022-08-27T21:27:25.000Z,65.41
2022-08-27T21:32:24.000Z,63.25
2022-08-27T21:37:25.000Z,62.16
2022-08-27T21:42:24.000Z,61.68
2022-08-27T21:47:24.000Z,58.41
2022-08-27T21:52:25.000Z,56.72
2022-08-27T21:57:24.000Z,57.83
2022-08-27T22:02:24.000Z,57.15
2022-08-27T22:07:25.000Z,53.57
2022-08-27T22:12:24.000Z,50.55
2022-08-27T22:17:24.000Z,50.65
2022-08-27T22:22:25.000Z,49.56
2022-08-27T22:27:25.000Z,49.08
2022-08-27T22:32:24.000Z,48
2022-08-27T22:37:24.000Z,47.16
2022-08-27T22:42:25.000Z,46.69
2022-08-27T22:47:24.000Z,47.38
2022-08-27T22:52:24.000Z,44.99
2022-08-27T22:57:24.000Z,43.08
2022-08-27T23:02:24.000Z,42.07
2022-08-27T23:07:24.000Z,38.96
2022-08-27T23:12:24.000Z,36.04
2022-08-27T23:17:24.000Z,35.52
2022-08-27T23:22:25.000Z,32.88
2022-08-27T23:27:24.000Z,31.04
2022-08-27T23:32:25.000Z,30.6
2022-08-27T23:37:25.000Z,29.9
2022-08-27T23:42:24.000Z,29.64
2022-08-27T23:47:24.000Z,30.02
2022-08-27T23:52:25.000Z,30.85
2022-08-27T23:57:24.000Z,29.99
